Time;durP1;ratioP1;P1;durP2;ratioP2;P2;SDS_P1;SDS_P2;PMS_P1;PMS_P2;Temp;Humidity;BMP_temperature;BMP_pressure;BME280_temperature;BME280_humidity;BME280_pressure;Samples;Min_cycle;Max_cycle;Signal;HPM_P1;HPM_P2
2023/02/16 00:02:47;;;;;;;6.07;5.47;;;;;;;19.94;41.99;98569.28;4852632;29;20228;-89
2023/02/16 00:05:46;;;;;;;5.73;5.23;;;;;;;18.18;42.14;98292.19;4919503;29;20619;-89
2023/02/16 00:08:57;;;;;;;6.27;5.67;;;;;;;18.28;41.91;98286.78;4998371;23;20236;-90
2023/02/16 00:15:22;;;;;;;6.00;5.50;;;;;;;19.93;42.10;98555.63;4933834;28;20204;-89
2023/02/16 00:18:14;;;;;;;5.83;5.33;;;;;;;18.01;42.21;98250.56;4950525;28;20251;-92
2023/02/16 00:20:55;;;;;;;5.50;5.00;;;;;;;16.96;42.15;98036.28;4932810;29;20662;-89
2023/02/16 00:24:08;;;;;;;5.47;4.97;;;;;;;18.36;42.21;98305.91;4952328;29;20728;-90
2023/02/16 00:27:25;;;;;;;5.90;5.30;;;;;;;19.59;42.02;98500.25;4942121;29;20236;-90
2023/02/16 00:37:04;;;;;;;5.20;4.70;;;;;;;16.66;42.26;98010.84;4924860;29;20233;-90
2023/02/16 00:39:51;;;;;;;5.87;5.37;;;;;;;18.33;42.10;98295.56;4953881;28;20215;-90
2023/02/16 00:46:56;;;;;;;5.40;4.90;;;;;;;17.83;42.16;98196.13;4964279;28;20227;-90
2023/02/16 00:50:18;;;;;;;5.93;5.33;;;;;;;16.65;42.17;98017.63;4906726;29;20207;-89
2023/02/16 00:54:07;;;;;;;4.90;4.50;;;;;;;17.94;42.05;98212.88;4892981;29;20257;-90
2023/02/16 00:56:43;;;;;;;5.07;4.67;;;;;;;18.12;42.07;98225.72;4876986;29;20253;-89
2023/02/16 00:59:31;;;;;;;5.10;4.70;;;;;;;18.16;42.08;98269.22;4896960;29;20741;-89
2023/02/16 01:02:23;;;;;;;5.17;4.77;;;;;;;19.95;42.11;98561.69;4931569;29;20204;-90
2023/02/16 01:05:04;;;;;;;4.53;4.23;;;;;;;18.31;42.26;98288.63;4880686;29;20206;-89
2023/02/16 01:11:22;;;;;;;5.43;5.00;;;;;;;17.60;42.11;98134.69;4889083;29;20253;-89
2023/02/16 01:14:18;;;;;;;4.80;4.40;;;;;;;18.31;42.28;98279.31;4875385;29;20201;-89
2023/02/16 01:16:55;;;;;;;4.97;4.57;;;;;;;18.23;42.30;98275.47;4960233;23;20278;-89
2023/02/16 01:19:48;;;;;;;5.07;4.67;;;;;;;19.60;42.08;98502.00;4942745;28;20705;-89
2023/02/16 01:22:25;;;;;;;5.60;5.10;;;;;;;18.49;42.06;98295.59;4978387;28;20213;-89
2023/02/16 01:25:36;;;;;;;5.63;5.13;;;;;;;17.20;42.03;98093.50;4969486;28;20249;-89
2023/02/16 01:28:38;;;;;;;4.70;4.30;;;;;;;18.25;41.98;98271.38;4987316;28;20262;-89
2023/02/16 01:31:26;;;;;;;5.10;4.70;;;;;;;16.82;42.01;98005.88;4958722;28;20203;-90
2023/02/16 01:34:38;;;;;;;4.33;4.03;;;;;;;19.96;42.01;98548.13;4943925;28;20234;-90
2023/02/16 01:37:50;;;;;;;4.73;4.33;;;;;;;17.78;42.18;98176.34;4995851;28;20226;-89
2023/02/16 01:42:55;;;;;;;4.63;4.13;;;;;;;15.49;42.17;97752.41;4976540;23;20605;-84
2023/02/16 01:45:31;;;;;;;4.63;4.23;;;;;;;19.97;42.14;98538.81;4920827;29;20255;-85
2023/02/16 01:48:08;;;;;;;4.67;4.30;;;;;;;18.71;42.09;98343.44;4922907;29;20606;-85
2023/02/16 01:50:44;;;;;;;4.20;3.90;;;;;;;19.79;42.03;98512.34;4914517;29;20737;-84
2023/02/16 01:53:31;;;;;;;4.33;4.03;;;;;;;19.98;42.15;98532.91;4919368;29;20234;-85
2023/02/16 01:56:05;;;;;;;4.60;4.20;;;;;;;19.65;42.00;98473.41;4949837;29;20283;-85
2023/02/16 01:58:53;;;;;;;4.23;3.83;;;;;;;18.81;42.06;98366.06;4926436;29;20211;-84
2023/02/16 02:01:37;;;;;;;4.73;4.33;;;;;;;19.98;42.01;98530.34;4902584;29;20647;-85
2023/02/16 02:06:58;;;;;;;4.27;3.97;;;;;;;19.99;41.91;98520.22;4923216;28;20213;-85
2023/02/16 02:09:37;;;;;;;4.30;4.00;;;;;;;20.00;41.83;98528.75;4935026;29;20588;-85
2023/02/16 02:12:28;;;;;;;4.43;4.07;;;;;;;20.00;41.88;98518.56;4902095;29;20228;-85
2023/02/16 02:14:55;;;;;;;4.20;3.90;;;;;;;20.00;42.01;98516.00;4942733;29;20575;-85
2023/02/16 02:17:22;;;;;;;4.60;4.20;;;;;;;19.99;41.95;98517.66;4941823;29;20300;-85
2023/02/16 02:20:06;;;;;;;4.40;4.00;;;;;;;20.00;42.12;98518.56;4917477;29;20594;-85
2023/02/16 02:25:43;;;;;;;4.00;3.70;;;;;;;19.98;42.15;98516.75;4934505;29;20228;-85
2023/02/16 02:28:16;;;;;;;4.10;3.80;;;;;;;19.98;42.12;98504.84;4929195;29;20251;-85
2023/02/16 02:31:00;;;;;;;4.10;3.80;;;;;;;19.98;42.18;98499.72;4946545;29;20207;-86
2023/02/16 02:33:56;;;;;;;4.00;3.70;;;;;;;19.98;42.27;98503.97;4917417;29;20252;-85
2023/02/16 02:36:39;;;;;;;4.30;3.90;;;;;;;19.62;42.28;98441.75;4902150;29;20205;-86
2023/02/16 02:39:37;;;;;;;4.20;3.90;;;;;;;19.96;42.09;98498.81;4917881;29;20220;-85
2023/02/16 02:42:09;;;;;;;4.10;3.80;;;;;;;19.96;42.22;98494.56;4931733;29;20263;-85
2023/02/16 02:44:53;;;;;;;4.30;3.90;;;;;;;19.28;42.15;98383.09;4926339;29;20752;-83
2023/02/16 02:47:22;;;;;;;4.03;3.73;;;;;;;18.60;42.04;98265.63;4923786;29;20598;-85
2023/02/16 02:50:04;;;;;;;3.87;3.57;;;;;;;18.64;42.06;98275.16;4924744;28;20251;-85
2023/02/16 02:52:31;;;;;;;3.93;3.63;;;;;;;19.96;42.24;98502.22;4937962;29;20259;-85
2023/02/16 03:00:46;;;;;;;3.80;3.50;;;;;;;19.95;42.07;98497.91;4944254;28;20230;-85
2023/02/16 03:03:30;;;;;;;3.73;3.43;;;;;;;19.96;41.86;98519.22;4921409;29;20208;-85
2023/02/16 03:06:02;;;;;;;4.47;4.07;;;;;;;18.09;42.13;98230.63;4921359;29;20209;-85
2023/02/16 03:08:30;;;;;;;4.00;3.60;;;;;;;18.27;42.07;98238.38;4940683;29;20707;-85
2023/02/16 03:14:16;;;;;;;4.30;3.90;;;;;;;19.94;41.93;98514.03;4945189;29;20208;-85
2023/02/16 03:31:00;;;;;;;3.90;3.60;;;;;;;19.81;42.10;98500.56;4939467;29;20271;-85
2023/02/16 03:33:30;;;;;;;3.80;3.50;;;;;;;18.01;42.00;98165.75;4923821;29;20228;-85
2023/02/16 03:35:56;;;;;;;4.50;4.10;;;;;;;17.59;42.20;98116.03;4917988;28;20357;-85
2023/02/16 03:38:23;;;;;;;35.27;5.30;;;;;;;19.93;42.17;98494.41;4941316;29;20376;-84
2023/02/16 03:40:59;;;;;;;4.00;3.70;;;;;;;18.04;42.69;98204.97;4911817;29;20239;-85
2023/02/16 03:43:28;;;;;;;3.80;3.50;;;;;;;18.09;42.02;98178.06;4921460;29;20626;-84
2023/02/16 03:45:57;;;;;;;3.67;3.37;;;;;;;19.29;42.15;98392.47;4914277;28;20216;-85
2023/02/16 03:48:23;;;;;;;3.80;3.50;;;;;;;19.94;42.21;98506.38;4920559;29;20216;-85
2023/02/16 03:50:53;;;;;;;3.73;3.43;;;;;;;19.93;42.15;98499.50;4915680;29;20219;-85
2023/02/16 03:53:19;;;;;;;3.80;3.50;;;;;;;19.94;42.09;98497.84;4947865;28;20241;-83
2023/02/16 03:55:46;;;;;;;3.63;3.33;;;;;;;19.94;42.04;98497.84;4924109;29;20209;-85
2023/02/16 03:58:19;;;;;;;4.00;3.70;;;;;;;19.94;41.86;98501.28;4934164;29;20204;-85
2023/02/16 04:00:45;;;;;;;4.10;3.80;;;;;;;14.46;41.93;97532.19;4936527;28;20220;-85
2023/02/16 04:03:12;;;;;;;4.00;3.70;;;;;;;12.53;42.08;97361.50;4921944;29;20238;-85
2023/02/16 04:05:39;;;;;;;3.90;3.60;;;;;;;19.90;41.92;98499.34;4921824;29;20201;-85
2023/02/16 04:08:08;;;;;;;3.83;3.53;;;;;;;18.70;42.38;98306.91;4935370;29;20211;-84
2023/02/16 04:10:39;;;;;;;3.60;3.30;;;;;;;18.26;42.01;98290.06;4922404;29;20259;-84
2023/02/16 04:13:11;;;;;;;3.67;3.37;;;;;;;19.93;42.13;98512.25;4915715;29;20675;-85
2023/02/16 04:15:38;;;;;;;3.60;3.30;;;;;;;15.94;41.99;97850.38;4917079;29;20339;-86
2023/02/16 04:18:04;;;;;;;3.80;3.50;;;;;;;15.50;41.89;97740.59;4932837;29;20206;-84
2023/02/16 04:20:32;;;;;;;3.73;3.43;;;;;;;19.31;42.08;98424.03;4921824;29;20709;-85
2023/02/16 04:22:59;;;;;;;3.70;3.40;;;;;;;19.93;42.09;98501.19;4932849;29;20303;-85
2023/02/16 04:25:27;;;;;;;3.50;3.20;;;;;;;19.92;42.11;98513.06;4917146;29;20207;-85
2023/02/16 04:27:54;;;;;;;3.70;3.40;;;;;;;19.93;42.06;98503.75;4943995;29;20308;-85
2023/02/16 04:30:25;;;;;;;3.70;3.40;;;;;;;18.83;42.12;98319.50;4952387;29;20295;-85
2023/02/16 04:32:53;;;;;;;3.60;3.30;;;;;;;19.93;42.08;98507.16;4949702;29;20255;-85
2023/02/16 04:35:20;;;;;;;3.80;3.50;;;;;;;19.93;42.33;98508.84;4938123;29;20208;-85
2023/02/16 04:37:47;;;;;;;4.10;3.80;;;;;;;19.94;42.10;98508.03;4942320;29;20196;-85
2023/02/16 04:40:18;;;;;;;3.50;3.20;;;;;;;19.94;42.30;98513.16;4917767;29;20236;-85
2023/02/16 04:42:44;;;;;;;3.77;3.47;;;;;;;19.93;42.52;98514.81;4950114;29;20642;-86
2023/02/16 04:45:11;;;;;;;3.67;3.37;;;;;;;19.92;42.15;98509.63;4936710;29;20279;-85
2023/02/16 04:47:38;;;;;;;3.67;3.37;;;;;;;19.94;42.61;98513.16;4935477;29;20227;-85
2023/02/16 04:50:05;;;;;;;3.60;3.30;;;;;;;19.66;42.26;98462.38;4941710;29;20193;-85
2023/02/16 04:52:33;;;;;;;3.27;3.07;;;;;;;19.94;41.76;98505.50;4917540;29;20587;-87
2023/02/16 04:54:59;;;;;;;3.30;3.00;;;;;;;19.94;42.11;98506.38;4920267;29;20739;-85
2023/02/16 04:57:26;;;;;;;3.50;3.20;;;;;;;19.66;42.30;98449.63;4935764;29;20209;-82
2023/02/16 04:59:52;;;;;;;3.37;3.17;;;;;;;18.66;42.00;98279.56;4919757;29;20693;-84
2023/02/16 05:02:19;;;;;;;3.90;3.60;;;;;;;19.39;42.23;98414.22;4936487;29;20323;-84
2023/02/16 05:04:45;;;;;;;3.70;3.40;;;;;;;19.95;41.87;98508.13;4921030;29;20239;-84
2023/02/16 05:07:12;;;;;;;4.13;3.73;;;;;;;19.12;42.35;98357.53;4936437;29;20204;-85
2023/02/16 05:09:39;;;;;;;3.90;3.60;;;;;;;19.96;42.30;98507.31;4933253;29;20646;-86
2023/02/16 05:14:50;;;;;;;3.80;3.50;;;;;;;19.01;42.33;98350.16;4935958;29;20204;-86
2023/02/16 05:17:21;;;;;;;3.50;3.20;;;;;;;19.95;42.02;98509.78;4904713;29;20201;-87
2023/02/16 05:19:49;;;;;;;3.67;3.37;;;;;;;19.52;41.91;98445.53;4936139;29;20312;-87
2023/02/16 05:22:16;;;;;;;4.10;3.80;;;;;;;18.95;41.86;98345.59;4914471;29;20220;-86
2023/02/16 05:24:42;;;;;;;4.27;3.97;;;;;;;18.99;41.77;98357.72;4921055;29;20271;-87
2023/02/16 05:27:16;;;;;;;4.00;3.70;;;;;;;19.67;41.77;98489.66;4933068;29;20634;-89
2023/02/16 05:29:43;;;;;;;3.83;3.53;;;;;;;19.95;41.92;98540.41;4921491;29;20197;-86
2023/02/16 05:32:09;;;;;;;3.80;3.50;;;;;;;19.38;41.44;98437.94;4950083;29;20255;-87
2023/02/16 05:34:36;;;;;;;3.53;3.27;;;;;;;19.93;41.53;98540.31;4920699;29;20211;-87
2023/02/16 05:37:02;;;;;;;6.60;5.57;;;;;;;19.46;41.52;98447.75;4920406;29;20205;-86
2023/02/16 05:39:29;;;;;;;7.43;6.80;;;;;;;19.46;40.27;98460.50;4913334;29;20292;-86
2023/02/16 05:41:56;;;;;;;9.90;8.43;;;;;;;18.66;38.91;98330.47;4905454;29;20236;-86
2023/02/16 05:44:22;;;;;;;9.40;8.50;;;;;;;19.89;38.46;98542.63;4898649;29;20201;-85
2023/02/16 05:46:49;;;;;;;11.83;9.20;;;;;;;19.87;37.55;98537.44;4945002;29;20209;-86
2023/02/16 05:49:16;;;;;;;11.17;10.07;;;;;;;19.25;36.87;98431.31;4933347;29;20619;-85
2023/02/16 05:51:42;;;;;;;11.47;10.37;;;;;;;19.32;36.26;98447.81;4911884;29;20248;-87
2023/02/16 05:54:16;;;;;;;12.00;10.80;;;;;;;18.63;36.15;98331.97;4919594;29;20209;-87
2023/02/16 05:56:47;;;;;;;11.93;10.73;;;;;;;18.72;35.79;98353.72;4908373;29;20208;-87
2023/02/16 05:59:14;;;;;;;12.23;11.03;;;;;;;19.40;36.18;98490.78;4941600;28;20201;-89
2023/02/16 06:01:41;;;;;;;11.73;10.53;;;;;;;19.22;36.36;98453.19;4922630;29;20233;-87
2023/02/16 06:04:09;;;;;;;11.23;10.13;;;;;;;18.87;36.95;98395.28;4916871;29;20208;-86
2023/02/16 06:06:36;;;;;;;10.93;9.50;;;;;;;19.74;37.35;98552.03;4913112;29;20206;-88
2023/02/16 06:09:04;;;;;;;10.90;9.90;;;;;;;19.43;37.56;98498.59;4951107;29;20290;-85
2023/02/16 06:11:36;;;;;;;11.13;10.03;;;;;;;19.18;37.98;98458.91;4920749;29;20212;-87
2023/02/16 06:14:08;;;;;;;9.37;8.43;;;;;;;19.73;38.27;98557.94;4905242;29;20208;-85
2023/02/16 06:16:36;;;;;;;11.63;8.87;;;;;;;19.14;38.54;98459.53;4952860;28;20205;-84
2023/02/16 06:19:03;;;;;;;10.63;9.03;;;;;;;18.82;38.63;98399.25;4928193;29;20208;-86
2023/02/16 06:21:29;;;;;;;9.37;8.47;;;;;;;19.73;38.76;98563.94;4918545;29;20316;-86
2023/02/16 06:23:56;;;;;;;9.07;8.10;;;;;;;18.99;38.86;98434.13;4934464;29;20240;-85
2023/02/16 06:26:22;;;;;;;9.60;8.70;;;;;;;19.51;38.78;98519.38;4927296;29;20731;-85
2023/02/16 06:28:49;;;;;;;8.27;7.47;;;;;;;18.21;38.53;98293.19;4934871;29;20210;-84
2023/02/16 06:31:16;;;;;;;8.87;8.07;;;;;;;18.89;38.94;98415.75;4917051;29;20221;-85
2023/02/16 06:33:42;;;;;;;8.90;8.00;;;;;;;18.94;39.04;98421.94;4920702;29;20292;-86
2023/02/16 06:36:09;;;;;;;9.40;8.50;;;;;;;18.97;38.77;98427.19;4930562;29;20300;-86
2023/02/16 06:38:36;;;;;;;9.33;8.23;;;;;;;19.79;39.02;98568.47;4911928;29;20196;-85
2023/02/16 06:41:02;;;;;;;8.17;7.47;;;;;;;19.80;38.96;98573.66;4942319;29;20225;-85
2023/02/16 06:43:29;;;;;;;8.00;7.20;;;;;;;19.81;38.77;98572.00;4946625;29;20211;-86
2023/02/16 06:45:56;;;;;;;8.23;7.43;;;;;;;19.81;39.23;98575.41;4935107;29;20267;-86
2023/02/16 06:48:22;;;;;;;7.83;7.13;;;;;;;18.92;39.10;98421.00;4935658;29;20648;-86
2023/02/16 06:50:49;;;;;;;7.77;7.07;;;;;;;18.68;39.06;98381.47;4951627;29;21105;-87
2023/02/16 06:53:16;;;;;;;7.60;6.90;;;;;;;18.72;39.07;98384.28;4949118;28;20610;-85
2023/02/16 06:55:42;;;;;;;7.33;6.63;;;;;;;19.55;39.26;98527.28;4932542;29;20283;-86
2023/02/16 06:58:09;;;;;;;8.17;7.37;;;;;;;19.85;38.91;98579.00;4934712;29;20255;-86
2023/02/16 07:00:36;;;;;;;8.60;7.73;;;;;;;19.54;38.67;98519.53;4934164;29;20706;-86
2023/02/16 07:03:02;;;;;;;14.30;11.03;;;;;;;19.85;37.62;98577.34;4903314;29;20204;-86
2023/02/16 07:05:29;;;;;;;10.50;9.40;;;;;;;19.54;37.66;98522.94;4933267;29;20201;-87
2023/02/16 07:07:56;;;;;;;9.70;8.73;;;;;;;19.50;37.93;98510.84;4931862;29;20227;-84
2023/02/16 07:10:22;;;;;;;10.33;8.90;;;;;;;19.82;38.51;98572.06;4925499;29;20691;-85
2023/02/16 07:12:49;;;;;;;11.90;9.27;;;;;;;18.63;38.39;98362.53;4932721;29;20238;-86
2023/02/16 07:15:15;;;;;;;9.80;8.80;;;;;;;19.81;38.63;98582.19;4914016;29;20684;-87
2023/02/16 07:17:42;;;;;;;9.23;8.33;;;;;;;19.42;38.80;98518.88;4929058;29;20211;-87
2023/02/16 07:20:11;;;;;;;9.97;8.50;;;;;;;19.80;39.08;98588.06;4922963;29;20713;-86
2023/02/16 07:22:38;;;;;;;9.63;8.60;;;;;;;19.39;38.96;98517.03;4923646;29;20224;-86
2023/02/16 07:25:04;;;;;;;8.90;8.10;;;;;;;19.00;39.18;98448.63;4912993;29;20208;-86
2023/02/16 07:27:31;;;;;;;10.97;8.33;;;;;;;18.83;39.48;98410.31;4930322;29;20256;-86
2023/02/16 07:29:57;;;;;;;11.20;7.90;;;;;;;19.55;38.96;98541.69;4928825;28;20209;-86
2023/02/16 07:32:24;;;;;;;9.17;7.73;;;;;;;19.83;39.05;98593.34;4905436;29;20229;-87
2023/02/16 07:34:51;;;;;;;9.40;8.50;;;;;;;19.83;38.79;98586.56;4939762;29;20604;-87
2023/02/16 07:37:17;;;;;;;8.77;7.87;;;;;;;19.42;38.91;98517.19;4948953;29;20232;-86
2023/02/16 07:39:44;;;;;;;8.33;7.53;;;;;;;19.71;38.88;98559.53;4920137;29;20212;-87
2023/02/16 07:42:11;;;;;;;8.40;7.60;;;;;;;19.17;39.08;98480.09;5013382;23;20219;-90
2023/02/16 07:44:38;;;;;;;11.20;7.90;;;;;;;19.14;39.13;98470.63;4984826;28;20183;-92
2023/02/16 07:47:04;;;;;;;9.03;8.10;;;;;;;19.38;39.17;98516.94;4973386;28;20239;-91
2023/02/16 07:49:31;;;;;;;7.90;7.10;;;;;;;19.02;39.09;98477.63;4980485;28;20228;-91
2023/02/16 07:51:57;;;;;;;8.50;7.70;;;;;;;19.22;39.44;98493.97;4980478;28;20234;-90
2023/02/16 07:54:24;;;;;;;8.20;7.40;;;;;;;19.74;39.36;98578.44;4980935;28;20201;-90
2023/02/16 07:56:50;;;;;;;8.07;7.27;;;;;;;19.30;39.34;98500.41;4964920;28;20240;-90
2023/02/16 07:59:17;;;;;;;7.43;6.73;;;;;;;18.29;39.68;98336.03;4977204;28;20268;-91
2023/02/16 08:01:44;;;;;;;7.40;6.70;;;;;;;19.30;39.57;98513.16;4974080;28;20228;-90
2023/02/16 08:04:10;;;;;;;7.97;6.90;;;;;;;19.41;39.58;98533.31;4960148;28;21778;-90
2023/02/16 08:06:37;;;;;;;7.07;6.37;;;;;;;19.37;39.58;98517.75;4952706;29;20193;-91
2023/02/16 08:09:03;;;;;;;7.20;6.60;;;;;;;19.13;39.65;98480.75;4974096;28;20215;-90
2023/02/16 08:11:30;;;;;;;6.97;6.27;;;;;;;19.46;39.50;98534.44;4957339;28;20495;-91
2023/02/16 08:14:00;;;;;;;7.33;6.63;;;;;;;18.88;39.51;98419.94;4975256;28;20196;-90
2023/02/16 08:16:27;;;;;;;8.63;7.30;;;;;;;19.78;39.26;98582.03;4977182;28;20204;-90
2023/02/16 08:18:55;;;;;;;7.43;6.73;;;;;;;18.31;39.52;98335.31;4984507;28;20227;-90
2023/02/16 08:21:22;;;;;;;7.57;6.87;;;;;;;19.53;39.43;98540.72;4972117;28;20212;-90
2023/02/16 08:24:00;;;;;;;6.93;6.23;;;;;;;18.86;39.61;98433.41;4974182;28;20214;-90
2023/02/16 08:26:28;;;;;;;7.37;6.67;;;;;;;19.01;39.54;98463.09;4964572;28;20386;-91
2023/02/16 08:28:55;;;;;;;7.17;6.47;;;;;;;18.11;39.40;98302.78;4984727;28;20199;-90
2023/02/16 08:31:24;;;;;;;7.13;6.43;;;;;;;18.75;39.45;98394.63;4963320;28;20481;-90
2023/02/16 08:33:51;;;;;;;9.20;8.30;;;;;;;19.32;39.39;98496.25;4981410;28;20202;-92
2023/02/16 08:36:22;;;;;;;12.67;11.37;;;;;;;19.86;37.75;98596.03;4971020;28;20185;-92
2023/02/16 08:38:49;;;;;;;11.97;10.73;;;;;;;18.87;37.24;98432.59;4981079;28;20192;-92
2023/02/16 08:41:17;;;;;;;11.47;10.13;;;;;;;18.72;38.07;98421.59;4958706;28;20231;-92
2023/02/16 08:43:44;;;;;;;10.57;9.23;;;;;;;19.33;38.45;98528.59;4961085;28;20197;-91
2023/02/16 08:46:17;;;;;;;9.80;8.90;;;;;;;17.30;38.35;98153.31;4961274;28;20188;-91
2023/02/16 08:48:44;;;;;;;10.13;9.10;;;;;;;18.49;38.98;98371.06;4963230;28;20256;-91
2023/02/16 08:51:18;;;;;;;9.97;8.97;;;;;;;18.64;38.74;98385.53;4978514;28;20208;-93
2023/02/16 08:53:45;;;;;;;9.50;8.50;;;;;;;19.37;38.72;98523.75;4972797;28;20264;-92
2023/02/16 08:56:13;;;;;;;9.77;8.77;;;;;;;18.86;38.63;98439.34;4962281;28;20181;-92
2023/02/16 08:58:39;;;;;;;8.93;8.03;;;;;;;18.61;38.63;98387.00;4962016;28;20209;-93
2023/02/16 09:01:07;;;;;;;11.00;9.30;;;;;;;18.99;38.73;98451.09;4974228;28;20212;-92
2023/02/16 09:03:37;;;;;;;9.03;8.13;;;;;;;18.40;38.73;98350.22;4937483;29;20228;-90
2023/02/16 09:06:04;;;;;;;9.60;8.63;;;;;;;18.42;38.94;98354.63;4969193;28;20266;-91
2023/02/16 09:08:36;;;;;;;9.47;8.47;;;;;;;19.37;39.02;98541.59;4969125;28;20204;-90
2023/02/16 09:11:07;;;;;;;8.67;7.77;;;;;;;19.38;38.99;98538.22;4968501;28;20583;-90
2023/02/16 09:13:34;;;;;;;12.33;7.97;;;;;;;19.12;39.03;98482.41;4967204;28;20211;-90
2023/02/16 09:16:03;;;;;;;9.13;8.23;;;;;;;19.08;39.05;98475.41;4963935;28;20201;-90
2023/02/16 09:18:31;;;;;;;9.63;7.73;;;;;;;19.20;39.08;98501.53;4957506;28;20209;-90
2023/02/16 09:21:03;;;;;;;8.80;7.90;;;;;;;18.95;39.32;98464.47;4962532;28;20224;-91
2023/02/16 09:23:30;;;;;;;8.77;7.87;;;;;;;19.79;39.15;98602.53;4968272;28;20307;-90
2023/02/16 09:25:57;;;;;;;9.57;8.57;;;;;;;19.46;39.22;98546.28;4967493;28;20220;-91
2023/02/16 09:28:24;;;;;;;8.93;8.00;;;;;;;19.28;39.40;98525.81;4960270;28;20211;-90
2023/02/16 09:30:53;;;;;;;9.13;7.67;;;;;;;19.29;39.23;98519.91;4962336;28;20204;-91
2023/02/16 09:33:20;;;;;;;9.00;7.67;;;;;;;18.53;39.25;98388.28;4967376;28;20227;-90
2023/02/16 09:35:47;;;;;;;8.63;7.73;;;;;;;19.47;39.10;98548.91;4970582;28;20215;-90
2023/02/16 09:38:15;;;;;;;8.10;7.30;;;;;;;19.13;39.16;98494.34;4969705;29;20223;-90
2023/02/16 09:40:42;;;;;;;8.27;7.47;;;;;;;19.26;39.29;98514.59;4968739;28;20246;-90
2023/02/16 09:43:32;;;;;;;8.90;7.47;;;;;;;19.87;39.13;98620.78;4980272;28;20260;-91
2023/02/16 09:45:58;;;;;;;8.07;7.20;;;;;;;18.73;39.35;98436.94;4967696;28;20211;-90
2023/02/16 09:48:36;;;;;;;8.30;7.50;;;;;;;18.99;39.19;98467.25;4964975;28;20437;-90
2023/02/16 09:51:04;;;;;;;8.97;7.90;;;;;;;19.43;39.20;98541.03;4958904;28;20208;-90
2023/02/16 09:53:38;;;;;;;8.70;7.80;;;;;;;19.52;39.23;98550.06;4964652;28;20530;-90
2023/02/16 09:56:28;;;;;;;8.10;7.30;;;;;;;19.12;39.30;98494.25;4965026;28;20338;-90
2023/02/16 09:59:15;;;;;;;8.90;7.23;;;;;;;19.85;39.42;98618.16;4950977;29;20211;-90
2023/02/16 10:02:19;;;;;;;9.10;7.80;;;;;;;19.85;39.23;98613.06;4968128;28;20242;-90
2023/02/16 10:04:57;;;;;;;9.07;7.57;;;;;;;19.34;39.31;98532.88;4964451;28;20212;-90
2023/02/16 10:07:45;;;;;;;8.07;7.27;;;;;;;19.85;39.30;98614.72;4973420;28;20208;-91
2023/02/16 10:10:14;;;;;;;7.63;6.93;;;;;;;19.84;39.32;98613.81;4964776;28;20255;-91
2023/02/16 10:12:45;;;;;;;7.47;6.67;;;;;;;18.66;39.43;98408.53;4952121;28;20240;-90
2023/02/16 10:15:21;;;;;;;7.83;6.90;;;;;;;18.77;39.40;98432.91;4962680;28;20535;-89
2023/02/16 10:17:54;;;;;;;8.10;7.30;;;;;;;18.42;39.33;98359.72;4965264;28;20238;-90
2023/02/16 10:24:59;;;;;;;9.60;7.23;;;;;;;19.21;39.56;98494.75;4890696;29;20205;-91
2023/02/16 10:45:52;;;;;;;7.40;6.40;;;;;;;19.83;39.83;98588.22;4270302;26;20223;-91
2023/02/16 10:48:22;;;;;;;8.00;6.50;;;;;;;19.25;39.64;98495.03;4961910;28;20271;-92
2023/02/16 10:51:01;;;;;;;7.13;6.43;;;;;;;19.63;39.80;98558.28;4979411;28;20272;-91
2023/02/16 10:53:42;;;;;;;7.80;7.00;;;;;;;19.82;39.74;98587.38;4982266;28;20236;-91
2023/02/16 10:56:30;;;;;;;7.77;6.97;;;;;;;19.82;39.68;98583.94;4976605;28;20204;-91
2023/02/16 10:58:57;;;;;;;6.30;5.70;;;;;;;19.58;39.63;98539.28;4989262;28;20204;-92
2023/02/16 11:01:33;;;;;;;7.27;6.57;;;;;;;19.12;39.64;98456.03;4983486;28;20291;-91
2023/02/16 11:04:00;;;;;;;7.03;6.33;;;;;;;19.72;39.85;98551.97;4979048;28;20242;-91
2023/02/16 11:06:27;;;;;;;7.50;6.60;;;;;;;19.58;39.77;98526.53;4990300;28;20208;-92
2023/02/16 11:08:56;;;;;;;7.07;6.37;;;;;;;18.26;39.63;98290.91;4985683;28;20520;-90
2023/02/16 11:11:27;;;;;;;6.70;6.00;;;;;;;19.15;39.64;98443.44;4976916;28;20264;-91
2023/02/16 11:13:59;;;;;;;7.43;6.73;;;;;;;19.31;39.66;98461.38;4988652;28;20204;-90
2023/02/16 11:16:25;;;;;;;7.00;6.30;;;;;;;19.49;39.84;98493.81;4975996;28;20208;-91
2023/02/16 11:18:56;;;;;;;6.87;6.20;;;;;;;19.84;39.77;98552.59;4988466;28;20204;-90
2023/02/16 11:21:57;;;;;;;7.30;6.57;;;;;;;18.59;39.62;98335.16;4987539;28;20288;-93
2023/02/16 11:24:28;;;;;;;7.03;6.33;;;;;;;19.85;39.80;98546.72;4991710;28;20234;-93
2023/02/16 11:27:05;;;;;;;7.27;6.17;;;;;;;18.14;39.77;98242.78;4970341;28;20271;-90
2023/02/16 11:29:32;;;;;;;7.33;6.60;;;;;;;19.35;39.79;98459.06;4981705;28;20203;-90
2023/02/16 11:32:00;;;;;;;7.37;6.67;;;;;;;19.84;39.75;98532.19;4983852;28;20239;-92
2023/02/16 11:34:32;;;;;;;7.20;6.03;;;;;;;19.80;39.70;98521.75;4982038;28;20204;-92
2023/02/16 11:37:04;;;;;;;6.27;5.67;;;;;;;19.12;39.66;98405.97;4989107;28;20227;-91
2023/02/16 11:55:42;;;;;;;7.63;6.73;;;;;;;18.65;39.68;98307.50;4061527;26;20229;-93
2023/02/16 11:58:24;;;;;;;8.17;7.37;;;;;;;17.84;39.77;98154.69;4956448;28;20230;-95
2023/02/16 12:01:45;;;;;;;7.57;6.87;;;;;;;19.84;39.56;98498.19;4948470;28;20198;-93
2023/02/16 12:04:40;;;;;;;7.33;6.63;;;;;;;19.84;39.70;98491.38;4908802;29;20190;-94
2023/02/16 12:07:29;;;;;;;7.63;6.93;;;;;;;18.15;39.69;98198.75;4991509;28;20196;-93
2023/02/16 12:09:59;;;;;;;7.30;6.60;;;;;;;19.86;39.80;98483.81;4950953;28;20255;-93
2023/02/16 12:12:41;;;;;;;7.70;6.90;;;;;;;19.86;39.83;98483.81;4984625;28;20532;-93
2023/02/16 12:15:24;;;;;;;9.33;7.60;;;;;;;18.29;39.52;98222.38;4995976;28;20196;-93
2023/02/16 12:18:04;;;;;;;8.43;6.73;;;;;;;19.43;39.51;98413.56;4949819;28;20226;-93
2023/02/16 12:20:49;;;;;;;7.53;6.80;;;;;;;19.88;39.51;98472.91;4975836;28;20188;-93
2023/02/16 12:23:18;;;;;;;8.03;6.57;;;;;;;19.89;39.74;98473.75;4980726;28;20266;-93
2023/02/16 12:26:32;;;;;;;7.57;6.77;;;;;;;19.60;39.84;98425.50;4963920;28;20204;-93
2023/02/16 12:29:22;;;;;;;6.73;6.10;;;;;;;19.90;39.82;98470.44;4997145;28;20527;-93
2023/02/16 12:32:11;;;;;;;7.50;6.63;;;;;;;19.90;40.13;98466.19;4989388;28;20501;-93
2023/02/16 12:35:00;;;;;;;6.77;6.07;;;;;;;19.91;40.03;98462.84;4983517;28;20251;-93
2023/02/16 12:37:38;;;;;;;7.17;6.47;;;;;;;19.04;40.21;98307.88;4978392;28;20191;-92
2023/02/16 12:48:30;;;;;;;6.13;5.53;;;;;;;19.95;40.08;98446.00;4964384;28;20184;-94
2023/02/16 12:51:48;;;;;;;6.40;5.80;;;;;;;18.32;40.10;98181.81;4977019;28;20203;-94
2023/02/16 12:54:44;;;;;;;7.10;5.67;;;;;;;19.95;40.17;98446.88;4953582;28;20222;-94
2023/02/16 12:57:47;;;;;;;6.43;5.73;;;;;;;18.33;40.18;98177.63;4968821;28;20200;-94
2023/02/16 13:00:46;;;;;;;5.40;4.90;;;;;;;19.39;40.23;98340.28;4977804;28;20189;-94
2023/02/16 13:04:02;;;;;;;5.80;5.20;;;;;;;19.97;40.28;98421.44;4964766;28;20234;-94
2023/02/16 13:06:51;;;;;;;6.07;5.47;;;;;;;19.98;40.29;98419.78;4984510;28;20231;-94
2023/02/16 13:09:53;;;;;;;7.07;4.83;;;;;;;18.27;40.22;98115.44;4995603;28;20196;-94
2023/02/16 13:12:39;;;;;;;6.10;5.50;;;;;;;18.07;40.30;98100.84;4965562;28;20429;-94
2023/02/16 13:15:21;;;;;;;8.13;5.13;;;;;;;19.41;40.45;98303.88;4941144;28;20214;-93
2023/02/16 13:17:55;;;;;;;5.87;5.27;;;;;;;17.70;40.64;98010.72;4992586;28;20202;-94
2023/02/16 13:20:25;;;;;;;5.77;5.17;;;;;;;18.37;40.62;98131.16;4960004;28;20207;-93
2023/02/16 13:23:19;;;;;;;4.93;4.53;;;;;;;19.67;40.48;98335.75;4947026;28;20231;-94
2023/02/16 13:26:16;;;;;;;5.00;4.60;;;;;;;18.70;40.41;98199.09;4975696;28;20204;-94
2023/02/16 13:29:11;;;;;;;5.83;5.07;;;;;;;19.99;40.49;98400.28;4921067;28;20184;-93
2023/02/16 13:31:43;;;;;;;6.00;5.00;;;;;;;19.98;40.67;98390.00;4992555;28;20232;-93
2023/02/16 13:34:45;;;;;;;6.10;5.13;;;;;;;19.97;40.83;98383.19;4977459;28;20195;-94
2023/02/16 13:37:37;;;;;;;7.17;4.87;;;;;;;19.98;40.63;98382.38;4988695;28;20210;-95
2023/02/16 13:40:09;;;;;;;5.10;4.60;;;;;;;19.98;40.47;98377.25;4990627;28;20202;-94
2023/02/16 13:42:58;;;;;;;5.10;4.60;;;;;;;18.66;40.59;98164.09;4975484;28;20227;-94
2023/02/16 13:45:27;;;;;;;5.33;4.53;;;;;;;19.13;40.58;98242.09;4961991;28;20199;-93
2023/02/16 13:47:53;;;;;;;5.50;5.00;;;;;;;19.03;40.60;98218.63;4947714;28;20195;-95
2023/02/16 13:50:21;;;;;;;5.60;5.10;;;;;;;19.99;40.50;98376.47;4946258;28;20188;-94